Time;durP1;ratioP1;P1;durP2;ratioP2;P2;SDS_P1;SDS_P2;PMS_P1;PMS_P2;Temp;Humidity;BMP_temperature;BMP_pressure;BME280_temperature;BME280_humidity;BME280_pressure;Samples;Min_cycle;Max_cycle;Signal;HPM_P1;HPM_P2
2024/01/26 00:00:41;;;;;;;6.53;6.03;;;9.60;99.90;;;;;;5095220;28;20501;-69
2024/01/26 00:03:06;;;;;;;6.90;6.40;;;9.60;99.90;;;;;;5094994;28;20047;-69
2024/01/26 00:05:32;;;;;;;6.90;6.30;;;9.60;99.90;;;;;;5095100;28;20099;-69
2024/01/26 00:07:58;;;;;;;6.90;6.30;;;9.50;99.90;;;;;;5094921;28;20461;-69
2024/01/26 00:10:23;;;;;;;6.40;5.90;;;9.50;99.90;;;;;;5094760;28;20504;-69
2024/01/26 00:12:49;;;;;;;7.65;6.32;;;9.40;99.90;;;;;;5095339;28;20377;-69
2024/01/26 00:15:14;;;;;;;7.28;6.57;;;9.40;99.90;;;;;;5094850;28;20016;-69
2024/01/26 00:17:40;;;;;;;7.50;6.80;;;9.40;99.90;;;;;;5094648;28;20058;-69
2024/01/26 00:20:06;;;;;;;6.85;6.35;;;9.40;99.90;;;;;;5094804;28;20035;-69
2024/01/26 00:22:32;;;;;;;6.70;6.20;;;9.40;99.90;;;;;;5094699;28;20032;-68
2024/01/26 00:24:58;;;;;;;7.40;6.60;;;9.40;99.90;;;;;;5094808;28;20016;-69
2024/01/26 00:27:24;;;;;;;7.05;6.45;;;9.40;99.90;;;;;;5093971;28;20370;-69
2024/01/26 00:29:49;;;;;;;8.18;6.78;;;9.30;99.90;;;;;;5094454;28;20069;-68
2024/01/26 00:32:15;;;;;;;7.43;6.82;;;9.30;99.90;;;;;;5094492;28;20386;-69
2024/01/26 00:34:41;;;;;;;7.38;6.78;;;9.30;99.90;;;;;;5093035;28;20109;-69
2024/01/26 00:37:06;;;;;;;7.97;7.20;;;9.50;99.90;;;;;;5094018;28;20040;-69
2024/01/26 00:39:32;;;;;;;7.75;7.05;;;9.70;99.90;;;;;;5094340;28;20385;-68
2024/01/26 00:41:57;;;;;;;7.00;6.50;;;9.80;99.90;;;;;;5093539;28;20052;-69
2024/01/26 00:44:23;;;;;;;6.82;6.30;;;10.00;99.90;;;;;;5094275;28;20024;-69
2024/01/26 00:46:49;;;;;;;6.50;6.00;;;10.10;99.90;;;;;;5094151;28;20378;-69
2024/01/26 00:49:14;;;;;;;6.57;5.97;;;10.20;99.90;;;;;;5093957;28;20020;-69
2024/01/26 00:51:40;;;;;;;7.10;6.40;;;10.20;99.90;;;;;;5094293;28;20073;-69
2024/01/26 00:54:05;;;;;;;8.18;6.72;;;10.20;99.90;;;;;;5093718;28;20031;-69
2024/01/26 00:56:31;;;;;;;6.63;6.07;;;10.20;99.90;;;;;;5093893;28;20035;-69
2024/01/26 00:58:57;;;;;;;6.30;5.80;;;10.00;99.90;;;;;;5094004;28;20030;-69
2024/01/26 01:01:23;;;;;;;6.43;5.82;;;9.90;99.90;;;;;;5094110;28;20035;-69
2024/01/26 01:03:49;;;;;;;7.03;6.43;;;9.80;99.90;;;;;;5093846;28;20028;-69
2024/01/26 01:06:15;;;;;;;7.18;6.50;;;9.70;99.90;;;;;;5093774;28;20085;-69
2024/01/26 01:08:41;;;;;;;6.90;6.40;;;9.60;99.90;;;;;;5093500;28;20032;-69
2024/01/26 01:11:06;;;;;;;7.55;6.95;;;9.50;99.90;;;;;;5093954;28;20027;-69
2024/01/26 01:13:33;;;;;;;7.40;6.70;;;9.50;99.90;;;;;;5093347;28;20039;-69
2024/01/26 01:16:00;;;;;;;6.88;6.28;;;9.50;99.90;;;;;;5093928;28;20032;-68
2024/01/26 01:18:26;;;;;;;6.90;6.40;;;9.50;99.90;;;;;;5093790;28;20032;-69
2024/01/26 01:20:52;;;;;;;7.00;6.40;;;9.40;99.90;;;;;;5093525;28;20054;-68
2024/01/26 01:23:18;;;;;;;7.40;6.70;;;9.40;99.90;;;;;;5093303;28;20056;-69
2024/01/26 01:25:43;;;;;;;7.32;6.68;;;9.30;99.90;;;;;;5100891;28;20034;-69
2024/01/26 01:28:09;;;;;;;6.53;6.03;;;9.30;99.90;;;;;;5109144;28;20035;-69
2024/01/26 01:30:35;;;;;;;6.35;5.85;;;9.20;99.90;;;;;;5093290;28;20031;-68
2024/01/26 01:33:00;;;;;;;6.78;6.28;;;9.30;99.90;;;;;;5092248;28;20123;-68
2024/01/26 01:35:26;;;;;;;7.28;6.65;;;9.30;99.90;;;;;;5093154;28;20060;-68
2024/01/26 01:37:52;;;;;;;7.60;6.90;;;9.30;99.90;;;;;;5092484;28;20101;-69
2024/01/26 01:40:17;;;;;;;7.40;6.80;;;9.30;99.90;;;;;;5092275;28;20032;-68
2024/01/26 01:42:43;;;;;;;7.65;6.95;;;9.20;99.90;;;;;;5093560;28;20301;-68
2024/01/26 01:45:15;;;;;;;7.60;6.90;;;9.20;99.90;;;;;;5093088;28;20079;-68
2024/01/26 01:47:44;;;;;;;7.88;7.18;;;9.20;99.90;;;;;;5093068;28;20021;-69
2024/01/26 01:50:10;;;;;;;7.30;6.70;;;9.10;99.90;;;;;;5092925;28;20481;-69
2024/01/26 01:52:40;;;;;;;7.38;6.65;;;9.10;99.90;;;;;;5092944;28;20359;-68
2024/01/26 01:55:08;;;;;;;7.28;6.57;;;9.10;99.90;;;;;;5092827;28;20032;-68
2024/01/26 01:57:38;;;;;;;8.60;7.18;;;9.20;99.90;;;;;;5092881;28;20127;-68
2024/01/26 02:00:04;;;;;;;8.15;7.07;;;9.10;99.90;;;;;;5092743;28;20115;-68
2024/01/26 02:02:30;;;;;;;7.75;6.80;;;9.10;99.90;;;;;;5092979;28;20524;-68
2024/01/26 02:04:55;;;;;;;8.32;7.05;;;9.10;99.90;;;;;;5092686;28;20024;-68
2024/01/26 02:07:21;;;;;;;7.18;6.57;;;9.10;99.90;;;;;;5092340;28;20082;-68
2024/01/26 02:09:46;;;;;;;7.47;6.78;;;9.00;99.90;;;;;;5092596;28;20501;-68
2024/01/26 02:12:13;;;;;;;8.73;6.60;;;9.10;99.90;;;;;;5092720;28;20039;-68
2024/01/26 02:14:38;;;;;;;8.90;5.82;;;9.00;99.90;;;;;;5092468;28;20036;-68
2024/01/26 02:17:04;;;;;;;6.35;5.85;;;9.00;99.90;;;;;;5092377;28;20393;-68
2024/01/26 02:19:32;;;;;;;6.38;5.88;;;8.90;99.90;;;;;;5092942;28;20092;-68
2024/01/26 02:21:57;;;;;;;6.05;5.55;;;8.90;99.90;;;;;;5092043;28;20028;-68
2024/01/26 02:24:23;;;;;;;5.65;5.22;;;9.10;99.90;;;;;;5092494;28;20047;-68
2024/01/26 02:26:49;;;;;;;5.57;5.18;;;9.30;99.90;;;;;;5092376;28;20092;-68
2024/01/26 02:29:15;;;;;;;5.63;4.85;;;9.40;99.90;;;;;;5092350;28;20020;-69
2024/01/26 02:31:40;;;;;;;5.68;5.00;;;9.50;99.90;;;;;;5092266;28;20024;-68
2024/01/26 02:34:12;;;;;;;4.88;4.57;;;9.50;99.90;;;;;;5092225;28;20397;-68
2024/01/26 02:36:38;;;;;;;4.53;4.22;;;9.60;99.90;;;;;;5092021;28;20035;-68
2024/01/26 02:39:05;;;;;;;4.63;4.32;;;9.60;99.90;;;;;;5092237;28;20024;-69
2024/01/26 02:41:32;;;;;;;5.05;4.55;;;9.60;99.90;;;;;;5092001;28;20083;-68
2024/01/26 02:43:58;;;;;;;5.28;4.78;;;9.60;99.90;;;;;;5091449;28;20016;-68
2024/01/26 02:46:24;;;;;;;5.20;4.63;;;9.50;99.90;;;;;;5092430;28;20047;-68
2024/01/26 02:48:49;;;;;;;5.13;4.65;;;9.40;99.90;;;;;;5091032;28;20028;-68
2024/01/26 02:51:15;;;;;;;5.00;4.60;;;9.30;99.90;;;;;;5091480;28;20031;-68
2024/01/26 02:53:40;;;;;;;5.32;4.88;;;9.10;99.90;;;;;;5092497;28;20036;-69
2024/01/26 02:56:07;;;;;;;6.35;5.00;;;9.00;99.90;;;;;;5091867;28;20032;-69
2024/01/26 02:58:33;;;;;;;5.43;4.93;;;9.00;99.90;;;;;;5092010;28;20082;-68
2024/01/26 03:00:59;;;;;;;5.20;4.68;;;9.00;99.90;;;;;;5092133;28;20024;-68
2024/01/26 03:03:24;;;;;;;5.13;4.72;;;9.00;99.90;;;;;;5092285;28;20085;-68
2024/01/26 03:05:50;;;;;;;5.57;5.07;;;8.90;99.90;;;;;;5091800;28;20024;-68
2024/01/26 03:08:15;;;;;;;5.93;5.38;;;8.90;99.90;;;;;;5092104;28;20024;-68
2024/01/26 03:10:41;;;;;;;5.65;5.00;;;8.90;99.90;;;;;;5091890;28;20104;-68
2024/01/26 03:13:07;;;;;;;5.60;5.10;;;8.80;99.90;;;;;;5091655;28;20024;-68
2024/01/26 03:15:32;;;;;;;6.47;5.10;;;8.80;99.90;;;;;;5091634;28;20049;-68
2024/01/26 03:17:58;;;;;;;5.88;5.28;;;8.70;99.90;;;;;;5092174;28;20040;-68
2024/01/26 03:20:23;;;;;;;5.72;5.22;;;8.80;99.90;;;;;;5091459;28;20069;-68
2024/01/26 03:22:49;;;;;;;5.75;5.25;;;8.80;99.90;;;;;;5100238;28;20027;-68
2024/01/26 03:25:15;;;;;;;5.47;4.97;;;8.80;99.90;;;;;;5112061;28;20036;-68
2024/01/26 03:27:40;;;;;;;7.10;5.40;;;8.70;99.90;;;;;;5112142;28;20019;-68
2024/01/26 03:30:07;;;;;;;5.20;4.80;;;8.70;99.90;;;;;;5112337;28;20031;-68
2024/01/26 03:32:32;;;;;;;5.50;5.00;;;8.60;99.90;;;;;;5102547;28;20355;-68
2024/01/26 03:34:59;;;;;;;5.50;5.00;;;8.60;99.90;;;;;;5090843;28;20115;-69
2024/01/26 03:37:24;;;;;;;6.07;5.20;;;8.60;99.90;;;;;;5091448;28;20036;-68
2024/01/26 03:39:50;;;;;;;5.40;4.90;;;8.60;99.90;;;;;;5091394;28;20074;-68
2024/01/26 03:42:16;;;;;;;5.78;4.90;;;8.50;99.90;;;;;;5091667;28;20040;-69
2024/01/26 03:44:42;;;;;;;5.57;5.03;;;8.50;99.90;;;;;;5091674;28;20067;-68
2024/01/26 03:47:09;;;;;;;5.95;5.28;;;8.60;99.90;;;;;;5091474;28;20024;-68
2024/01/26 03:49:35;;;;;;;6.38;5.78;;;8.60;99.90;;;;;;5091317;28;20432;-68
2024/01/26 03:52:02;;;;;;;6.47;5.72;;;8.60;99.90;;;;;;5091310;28;20012;-68
2024/01/26 03:54:28;;;;;;;5.85;5.25;;;8.60;99.90;;;;;;5091460;28;20020;-68
2024/01/26 03:56:53;;;;;;;5.85;5.25;;;8.60;99.90;;;;;;5091796;28;20024;-68
2024/01/26 03:59:19;;;;;;;7.38;5.30;;;8.50;99.90;;;;;;5091264;28;20478;-68
2024/01/26 04:01:45;;;;;;;7.85;5.30;;;8.60;99.90;;;;;;5091255;28;20016;-69
2024/01/26 04:04:10;;;;;;;7.35;5.60;;;8.50;99.90;;;;;;5094914;28;20036;-68
2024/01/26 04:06:40;;;;;;;5.88;5.07;;;8.50;99.90;;;;;;5095378;28;20024;-69
2024/01/26 04:09:06;;;;;;;6.13;5.28;;;8.50;99.90;;;;;;5094857;28;20024;-69
2024/01/26 04:11:32;;;;;;;5.10;4.70;;;8.50;99.90;;;;;;5094725;28;20032;-68
2024/01/26 04:13:58;;;;;;;5.10;4.60;;;8.70;99.90;;;;;;5094641;28;20062;-68
2024/01/26 04:16:23;;;;;;;5.13;4.30;;;8.90;99.90;;;;;;5094323;28;20035;-69
2024/01/26 04:18:49;;;;;;;5.70;4.40;;;9.00;99.90;;;;;;5095118;28;20035;-69
2024/01/26 04:21:14;;;;;;;7.40;4.40;;;9.10;99.90;;;;;;5094711;28;20028;-68
2024/01/26 04:23:40;;;;;;;4.78;4.20;;;9.10;99.90;;;;;;5094445;28;20386;-68
2024/01/26 04:26:06;;;;;;;4.40;3.97;;;9.20;99.90;;;;;;5094600;28;20508;-68
2024/01/26 04:28:32;;;;;;;7.20;4.05;;;9.20;99.90;;;;;;5094293;28;20023;-68
2024/01/26 04:30:58;;;;;;;7.85;4.50;;;9.20;99.90;;;;;;5094169;28;20506;-68
2024/01/26 04:33:23;;;;;;;5.28;4.57;;;9.20;99.90;;;;;;5094709;28;20024;-68
2024/01/26 04:35:49;;;;;;;7.65;4.97;;;9.00;99.90;;;;;;5094347;28;20032;-68
2024/01/26 04:38:14;;;;;;;7.13;5.50;;;8.90;99.90;;;;;;5093973;28;20028;-68
2024/01/26 04:40:40;;;;;;;6.20;5.40;;;8.80;99.90;;;;;;5094155;28;20505;-68
2024/01/26 04:43:06;;;;;;;8.00;5.40;;;8.70;99.90;;;;;;5094445;28;20036;-68
2024/01/26 04:45:32;;;;;;;8.07;5.80;;;8.70;99.90;;;;;;5093917;28;20044;-68
2024/01/26 04:47:58;;;;;;;8.00;5.97;;;8.60;99.90;;;;;;5094099;28;20028;-68
2024/01/26 04:50:23;;;;;;;8.75;6.32;;;8.60;99.90;;;;;;5094095;28;20097;-68
2024/01/26 04:52:52;;;;;;;10.30;7.60;;;8.60;99.90;;;;;;5094010;28;20035;-69
2024/01/26 04:55:18;;;;;;;12.02;7.72;;;8.60;99.90;;;;;;5094023;28;20058;-68
2024/01/26 04:57:44;;;;;;;11.25;8.10;;;8.60;99.90;;;;;;5093842;28;20036;-68
2024/01/26 05:00:10;;;;;;;10.95;8.02;;;8.60;99.90;;;;;;5093961;28;20024;-68
2024/01/26 05:02:36;;;;;;;10.88;7.72;;;8.50;99.90;;;;;;5093844;28;20548;-68
2024/01/26 05:05:01;;;;;;;9.40;7.63;;;8.60;99.90;;;;;;5093878;28;20490;-68
2024/01/26 05:07:27;;;;;;;11.65;7.88;;;8.60;99.90;;;;;;5092855;28;20085;-68
2024/01/26 05:09:53;;;;;;;12.00;7.70;;;8.60;99.90;;;;;;5093762;28;20103;-69
2024/01/26 05:12:18;;;;;;;10.48;7.35;;;8.60;99.90;;;;;;5093720;28;20036;-68
2024/01/26 05:14:44;;;;;;;9.38;7.07;;;8.60;99.90;;;;;;5093374;28;20431;-68
2024/01/26 05:17:10;;;;;;;10.15;8.02;;;8.70;99.90;;;;;;5093522;28;20043;-68
2024/01/26 05:19:35;;;;;;;10.75;7.80;;;8.70;99.90;;;;;;5093666;28;20378;-68
2024/01/26 05:22:01;;;;;;;11.40;7.57;;;8.70;99.90;;;;;;5093789;28;20028;-68
2024/01/26 05:24:27;;;;;;;8.57;7.40;;;8.70;99.90;;;;;;5102304;28;20019;-68
2024/01/26 05:26:54;;;;;;;10.07;8.10;;;8.70;99.90;;;;;;5113790;28;20024;-68
2024/01/26 05:29:19;;;;;;;8.82;7.57;;;8.70;99.90;;;;;;5113790;28;20409;-68
2024/01/26 05:31:45;;;;;;;9.82;8.10;;;8.80;99.90;;;;;;5112618;28;20028;-68
2024/01/26 05:34:11;;;;;;;9.48;7.97;;;8.70;99.90;;;;;;5093186;28;20028;-68
2024/01/26 05:36:41;;;;;;;11.13;7.80;;;8.70;99.90;;;;;;5092526;28;20016;-68
2024/01/26 05:39:10;;;;;;;9.65;7.70;;;8.70;99.90;;;;;;5093145;28;20452;-68
2024/01/26 05:41:36;;;;;;;10.77;7.65;;;8.70;99.90;;;;;;5092993;28;20052;-68
2024/01/26 05:44:02;;;;;;;13.25;8.15;;;8.70;99.90;;;;;;5093150;28;20405;-68
2024/01/26 05:46:28;;;;;;;11.63;8.27;;;8.70;99.90;;;;;;5093007;28;20031;-68
2024/01/26 05:48:55;;;;;;;12.05;9.00;;;8.80;99.90;;;;;;5093082;28;20028;-68
2024/01/26 05:51:20;;;;;;;12.63;10.35;;;8.80;99.90;;;;;;5093230;28;20032;-68
2024/01/26 05:53:46;;;;;;;11.70;9.00;;;8.80;99.90;;;;;;5092880;28;20025;-68
2024/01/26 05:56:12;;;;;;;13.40;9.40;;;8.80;99.90;;;;;;5092838;28;20032;-68
2024/01/26 05:58:37;;;;;;;10.27;8.32;;;8.80;99.90;;;;;;5092558;28;20468;-68
2024/01/26 06:01:03;;;;;;;9.02;7.50;;;8.80;99.90;;;;;;5093268;28;20410;-67
2024/01/26 06:03:29;;;;;;;10.23;7.78;;;8.80;99.90;;;;;;5092651;28;20027;-67
2024/01/26 06:05:54;;;;;;;8.23;7.28;;;9.10;99.90;;;;;;5092981;28;20031;-67
2024/01/26 06:08:20;;;;;;;8.10;7.30;;;9.30;99.90;;;;;;5093093;28;20108;-67
2024/01/26 06:10:46;;;;;;;8.40;7.50;;;9.50;99.90;;;;;;5092586;28;20019;-68
2024/01/26 06:13:12;;;;;;;7.75;6.88;;;9.50;99.90;;;;;;5092237;28;20420;-68
2024/01/26 06:15:37;;;;;;;9.13;7.20;;;9.50;99.90;;;;;;5092958;28;20070;-68
2024/01/26 06:18:03;;;;;;;8.55;7.05;;;9.60;99.90;;;;;;5092446;28;20028;-68
2024/01/26 06:20:31;;;;;;;9.38;7.03;;;9.70;99.90;;;;;;5092606;28;20028;-68
2024/01/26 06:23:00;;;;;;;10.45;7.05;;;9.60;99.90;;;;;;5092366;28;20039;-67
2024/01/26 06:25:26;;;;;;;7.15;6.38;;;9.50;99.90;;;;;;5091311;28;20024;-68
2024/01/26 06:27:52;;;;;;;8.80;7.13;;;9.40;99.90;;;;;;5092421;28;20024;-68
2024/01/26 06:30:18;;;;;;;8.52;7.13;;;9.20;99.90;;;;;;5085039;28;20016;-68
2024/01/26 06:32:44;;;;;;;8.80;7.43;;;9.20;99.90;;;;;;5081700;28;20028;-68
2024/01/26 06:35:10;;;;;;;9.13;7.47;;;9.20;99.90;;;;;;5090614;28;20039;-68
2024/01/26 06:37:36;;;;;;;9.90;7.38;;;9.10;99.90;;;;;;5092005;28;20055;-68
2024/01/26 06:40:03;;;;;;;9.52;6.97;;;9.10;99.90;;;;;;5092218;28;20498;-67
2024/01/26 06:42:32;;;;;;;8.50;7.28;;;9.10;99.90;;;;;;5091536;28;20489;-68
2024/01/26 06:44:57;;;;;;;9.18;7.47;;;9.00;99.90;;;;;;5092030;28;20508;-68
2024/01/26 06:47:23;;;;;;;9.10;7.18;;;9.00;99.90;;;;;;5092158;28;20111;-67
2024/01/26 06:49:49;;;;;;;8.65;7.20;;;9.00;99.90;;;;;;5091898;28;20020;-68
2024/01/26 06:52:14;;;;;;;9.07;7.63;;;9.00;99.90;;;;;;5091970;28;20385;-67
2024/01/26 06:54:40;;;;;;;9.32;7.50;;;9.00;99.90;;;;;;5092185;28;20024;-67
2024/01/26 06:57:06;;;;;;;9.77;7.50;;;8.90;99.90;;;;;;5091380;28;20093;-68
2024/01/26 06:59:32;;;;;;;8.52;7.63;;;9.00;99.90;;;;;;5091683;28;20027;-68
2024/01/26 07:01:58;;;;;;;8.60;7.03;;;9.00;99.90;;;;;;5091428;28;20016;-68
2024/01/26 07:04:24;;;;;;;8.23;7.28;;;9.00;99.90;;;;;;5091554;28;20023;-68
2024/01/26 07:06:50;;;;;;;7.60;6.80;;;9.00;99.90;;;;;;5091265;28;20493;-68
2024/01/26 07:09:16;;;;;;;8.13;6.97;;;9.00;99.90;;;;;;5091750;28;20090;-68
2024/01/26 07:11:42;;;;;;;8.23;6.57;;;9.00;99.90;;;;;;5091470;28;20023;-68
2024/01/26 07:14:09;;;;;;;7.32;6.45;;;9.10;99.90;;;;;;5091636;28;20142;-68
2024/01/26 07:16:34;;;;;;;6.63;5.85;;;9.00;99.90;;;;;;5091745;28;20069;-68
2024/01/26 07:19:00;;;;;;;7.05;6.38;;;9.00;99.90;;;;;;5091889;28;20032;-68
2024/01/26 07:21:25;;;;;;;6.53;5.93;;;9.00;99.90;;;;;;5092097;28;20074;-68
2024/01/26 07:23:51;;;;;;;6.60;6.00;;;9.00;99.90;;;;;;5091465;28;20077;-68
2024/01/26 07:26:20;;;;;;;6.78;6.10;;;9.00;99.90;;;;;;5106498;28;20016;-68
2024/01/26 07:28:48;;;;;;;8.57;6.20;;;9.00;99.90;;;;;;5111743;28;20383;-67
2024/01/26 07:31:14;;;;;;;7.07;6.38;;;9.00;99.90;;;;;;5112619;28;20020;-66
2024/01/26 07:33:40;;;;;;;6.50;6.00;;;9.00;99.90;;;;;;5096732;28;20035;-66
2024/01/26 07:36:06;;;;;;;6.57;5.60;;;9.00;99.90;;;;;;5091686;28;20028;-67
2024/01/26 07:38:31;;;;;;;5.90;5.40;;;9.00;99.90;;;;;;5095336;28;20383;-67
2024/01/26 07:41:00;;;;;;;5.88;5.38;;;9.00;99.90;;;;;;5095350;28;20043;-68
2024/01/26 07:43:25;;;;;;;5.90;5.40;;;9.00;99.90;;;;;;5095270;28;20032;-67
2024/01/26 07:45:51;;;;;;;5.75;5.28;;;8.90;99.90;;;;;;5095368;28;20504;-68
2024/01/26 07:48:17;;;;;;;5.80;5.35;;;8.90;99.90;;;;;;5095780;28;20020;-68
2024/01/26 07:50:43;;;;;;;5.93;5.32;;;8.90;99.90;;;;;;5095247;28;20035;-67
2024/01/26 07:53:09;;;;;;;5.63;5.13;;;9.00;99.90;;;;;;5095103;28;20159;-67
2024/01/26 07:55:35;;;;;;;5.47;4.97;;;9.30;99.90;;;;;;5094962;28;20082;-67
2024/01/26 07:58:02;;;;;;;5.88;4.88;;;9.50;99.90;;;;;;5093153;28;20570;-68
2024/01/26 08:00:28;;;;;;;4.75;4.22;;;9.60;99.90;;;;;;5094952;28;20031;-69
2024/01/26 08:02:53;;;;;;;6.15;5.55;;;9.70;99.90;;;;;;5095266;28;20478;-67
2024/01/26 08:05:19;;;;;;;8.90;7.53;;;9.70;99.90;;;;;;5095075;28;20031;-67
2024/01/26 08:07:45;;;;;;;7.60;6.63;;;9.70;99.90;;;;;;5094930;28;20032;-71
2024/01/26 08:10:11;;;;;;;5.75;5.22;;;9.80;99.90;;;;;;5094590;28;20104;-68
2024/01/26 08:12:37;;;;;;;5.60;5.10;;;9.80;99.90;;;;;;5094638;28;20099;-68
2024/01/26 08:15:04;;;;;;;5.80;5.30;;;9.70;99.90;;;;;;5095219;28;20025;-67
2024/01/26 08:17:29;;;;;;;6.78;5.57;;;9.50;99.90;;;;;;5094750;28;20046;-67
2024/01/26 08:19:57;;;;;;;5.32;4.93;;;9.50;99.90;;;;;;5094754;28;20028;-67
2024/01/26 08:22:23;;;;;;;5.65;5.15;;;9.40;99.90;;;;;;5092778;28;20028;-66
2024/01/26 08:24:48;;;;;;;5.45;5.05;;;9.30;99.90;;;;;;5094221;28;20028;-67
2024/01/26 08:27:14;;;;;;;6.10;5.60;;;9.30;99.90;;;;;;5094806;28;20119;-67
2024/01/26 08:29:40;;;;;;;6.15;5.60;;;9.30;99.90;;;;;;5094644;28;20474;-67
2024/01/26 08:32:06;;;;;;;5.82;5.35;;;9.30;99.90;;;;;;5094910;28;20389;-68
2024/01/26 08:34:32;;;;;;;5.43;5.00;;;9.30;99.90;;;;;;5094406;28;20036;-68
2024/01/26 08:36:58;;;;;;;5.20;4.80;;;9.30;99.90;;;;;;5094387;28;20044;-68
2024/01/26 08:39:23;;;;;;;4.75;4.35;;;9.30;99.90;;;;;;5093736;28;20042;-68
2024/01/26 08:41:49;;;;;;;4.68;4.22;;;9.20;99.90;;;;;;5094280;28;20143;-68
2024/01/26 08:44:15;;;;;;;5.13;4.10;;;9.30;99.90;;;;;;5084224;28;20113;-68
2024/01/26 08:46:41;;;;;;;4.05;3.75;;;9.30;99.90;;;;;;5074413;28;20055;-67
2024/01/26 08:49:06;;;;;;;4.40;4.10;;;9.30;99.90;;;;;;5073106;28;20021;-68
2024/01/26 08:51:32;;;;;;;4.45;4.15;;;9.30;99.90;;;;;;5073874;28;20033;-68
2024/01/26 08:53:58;;;;;;;5.75;5.25;;;9.30;99.90;;;;;;5088612;28;20027;-68
2024/01/26 08:56:24;;;;;;;5.43;5.00;;;9.30;99.90;;;;;;5094085;28;20111;-68
2024/01/26 08:58:50;;;;;;;5.63;5.07;;;9.30;99.90;;;;;;5094071;28;20024;-68
2024/01/26 09:01:16;;;;;;;5.95;5.50;;;9.30;99.90;;;;;;5094261;28;20055;-68
2024/01/26 09:03:42;;;;;;;5.43;5.03;;;9.30;99.90;;;;;;5090560;28;20493;-68
2024/01/26 09:06:08;;;;;;;5.28;4.88;;;9.30;99.90;;;;;;5092836;28;20378;-68
2024/01/26 09:08:35;;;;;;;5.88;5.38;;;9.20;99.90;;;;;;5093452;28;20032;-68
2024/01/26 09:11:00;;;;;;;5.00;4.70;;;9.20;99.90;;;;;;5093911;28;20115;-68
2024/01/26 09:13:26;;;;;;;5.38;4.97;;;9.20;99.90;;;;;;5092443;28;20103;-68
2024/01/26 09:15:51;;;;;;;5.70;5.30;;;9.30;99.90;;;;;;5094505;28;20473;-68
2024/01/26 09:18:17;;;;;;;5.93;5.43;;;9.30;99.90;;;;;;5113003;28;20528;-68
2024/01/26 09:20:48;;;;;;;5.63;5.18;;;9.40;99.90;;;;;;5108241;28;20032;-66
2024/01/26 09:23:14;;;;;;;6.05;5.55;;;9.40;99.90;;;;;;5093348;28;20024;-68
2024/01/26 09:25:39;;;;;;;5.97;5.57;;;9.30;99.90;;;;;;5093339;28;20519;-68
2024/01/26 09:28:05;;;;;;;6.03;5.63;;;9.30;99.90;;;;;;5093872;28;20020;-68
2024/01/26 09:30:30;;;;;;;5.75;5.32;;;9.40;99.90;;;;;;5091743;28;20492;-69
2024/01/26 09:32:56;;;;;;;5.75;5.22;;;9.50;99.90;;;;;;5093247;28;20020;-68
2024/01/26 09:35:23;;;;;;;5.53;5.13;;;9.50;99.90;;;;;;5093431;28;20032;-68
2024/01/26 09:37:49;;;;;;;9.63;5.43;;;9.40;99.90;;;;;;5092904;28;20402;-68
2024/01/26 09:40:15;;;;;;;5.40;5.00;;;9.40;99.90;;;;;;5093029;28;20126;-69
2024/01/26 09:42:41;;;;;;;5.47;5.07;;;9.50;99.90;;;;;;5092702;28;20016;-64
2024/01/26 09:45:08;;;;;;;5.70;5.15;;;9.70;99.90;;;;;;5091808;28;20119;-64
2024/01/26 09:47:35;;;;;;;5.43;5.03;;;10.00;99.90;;;;;;5093278;28;20032;-64
2024/01/26 09:50:04;;;;;;;4.53;4.13;;;10.20;99.90;;;;;;5091496;28;20051;-64
2024/01/26 09:52:30;;;;;;;4.63;4.32;;;10.30;99.90;;;;;;5091442;28;20028;-64
2024/01/26 09:54:59;;;;;;;4.43;4.13;;;10.40;99.90;;;;;;5093179;28;20031;-64
2024/01/26 09:57:26;;;;;;;4.70;4.30;;;10.50;99.90;;;;;;5092830;28;20166;-64
2024/01/26 09:59:53;;;;;;;4.22;3.83;;;10.50;99.90;;;;;;5091958;28;20031;-64
2024/01/26 10:02:21;;;;;;;5.22;4.82;;;10.50;99.90;;;;;;5090997;28;20544;-64
2024/01/26 10:04:47;;;;;;;5.47;5.00;;;10.50;99.90;;;;;;5089363;28;20141;-64
2024/01/26 10:07:14;;;;;;;5.55;4.80;;;10.30;99.90;;;;;;5091530;28;20032;-65
2024/01/26 10:09:40;;;;;;;5.25;4.80;;;10.20;99.90;;;;;;5092866;28;20036;-65
2024/01/26 10:12:09;;;;;;;5.47;4.97;;;10.20;99.90;;;;;;5092724;28;20026;-65
2024/01/26 10:14:35;;;;;;;4.95;4.55;;;10.10;99.90;;;;;;5092440;28;20111;-64
2024/01/26 10:17:01;;;;;;;5.30;4.90;;;10.00;99.90;;;;;;5092792;28;20115;-65
2024/01/26 10:19:27;;;;;;;5.57;5.10;;;10.10;99.90;;;;;;5090704;28;20025;-65
2024/01/26 10:21:54;;;;;;;5.20;4.80;;;10.10;99.90;;;;;;5092492;28;20107;-65
2024/01/26 10:24:27;;;;;;;5.50;5.00;;;10.10;99.90;;;;;;5090855;28;20024;-65
2024/01/26 10:26:53;;;;;;;5.10;4.57;;;10.10;99.90;;;;;;5090809;28;20028;-65
2024/01/26 10:29:20;;;;;;;5.28;4.88;;;10.10;99.90;;;;;;5092756;28;20032;-65
2024/01/26 10:31:47;;;;;;;5.10;4.70;;;10.10;99.90;;;;;;5092266;28;20051;-65
2024/01/26 10:34:14;;;;;;;5.13;4.70;;;10.10;99.90;;;;;;5091530;28;20066;-64
2024/01/26 10:36:48;;;;;;;5.30;4.80;;;10.10;99.90;;;;;;5092015;28;20408;-65
2024/01/26 10:39:24;;;;;;;;;;;10.10;99.90;;;;;;5092680;28;20102;-65
2024/01/26 10:41:57;;;;;;;6.07;5.45;;;10.10;99.90;;;;;;5092058;28;20361;-65
2024/01/26 10:44:23;;;;;;;5.68;5.18;;;10.20;99.90;;;;;;5092072;28;20074;-65
2024/01/26 10:46:52;;;;;;;7.15;6.53;;;10.20;99.90;;;;;;5091983;28;20028;-65
2024/01/26 10:49:19;;;;;;;9.35;6.80;;;10.20;99.90;;;;;;5092079;28;20038;-65
2024/01/26 10:51:47;;;;;;;8.45;7.65;;;10.20;99.90;;;;;;5092187;28;20490;-65
2024/01/26 10:54:13;;;;;;;16.08;14.02;;;10.20;99.90;;;;;;5092049;28;20059;-65
2024/01/26 10:56:39;;;;;;;8.10;7.28;;;10.30;99.90;;;;;;5090398;28;20067;-65
2024/01/26 10:59:07;;;;;;;12.90;11.63;;;10.20;99.90;;;;;;5091840;28;20024;-65
2024/01/26 11:01:34;;;;;;;12.40;11.20;;;10.20;99.90;;;;;;5092266;28;20024;-65
2024/01/26 11:04:01;;;;;;;8.43;7.60;;;10.30;99.90;;;;;;5091501;28;20414;-65
2024/01/26 11:06:28;;;;;;;7.63;6.93;;;10.30;99.90;;;;;;5090174;28;20031;-65
2024/01/26 11:08:59;;;;;;;7.97;7.20;;;10.30;99.90;;;;;;5092307;28;20106;-65
2024/01/26 11:11:31;;;;;;;8.23;7.53;;;10.40;99.90;;;;;;5095684;28;20043;-65
2024/01/26 11:14:01;;;;;;;8.27;7.57;;;10.40;99.90;;;;;;5101821;28;20028;-65
2024/01/26 11:16:49;;;;;;;8.27;7.57;;;10.40;99.90;;;;;;5095762;28;20035;-65
2024/01/26 11:19:22;;;;;;;9.18;8.27;;;10.40;99.90;;;;;;5094113;28;20504;-65
2024/01/26 11:21:48;;;;;;;10.10;9.10;;;10.50;99.90;;;;;;5095880;28;20044;-65
2024/01/26 11:24:16;;;;;;;8.68;7.82;;;10.40;99.90;;;;;;5095757;28;20071;-65
2024/01/26 11:26:42;;;;;;;10.13;9.13;;;10.40;99.90;;;;;;5095731;28;20032;-65
2024/01/26 11:29:14;;;;;;;9.65;8.85;;;10.40;99.90;;;;;;5095588;28;20489;-65
2024/01/26 11:31:42;;;;;;;10.68;9.60;;;10.50;99.90;;;;;;5095779;28;20043;-65
2024/01/26 11:34:21;;;;;;;10.88;9.88;;;10.80;99.90;;;;;;5093464;28;20111;-65
2024/01/26 11:36:47;;;;;;;10.60;9.55;;;10.90;99.90;;;;;;5095491;28;20020;-65
2024/01/26 11:39:15;;;;;;;10.75;9.75;;;10.90;99.90;;;;;;5093286;28;20044;-65
2024/01/26 11:41:45;;;;;;;11.15;10.15;;;11.20;99.90;;;;;;5088645;28;20467;-64
2024/01/26 11:44:20;;;;;;;10.40;9.27;;;11.40;99.90;;;;;;5088368;28;20174;-64
2024/01/26 11:46:46;;;;;;;9.60;8.70;;;11.50;99.90;;;;;;5085281;28;20024;-64
2024/01/26 11:49:12;;;;;;;9.48;8.63;;;11.40;99.90;;;;;;5095166;28;20024;-66
2024/01/26 11:51:38;;;;;;;9.70;8.90;;;11.30;99.90;;;;;;5095276;28;20035;-65
2024/01/26 11:54:05;;;;;;;11.57;10.48;;;11.20;99.90;;;;;;5095217;28;20420;-65
2024/01/26 11:56:31;;;;;;;11.68;10.57;;;11.20;99.90;;;;;;5094403;28;20032;-65
2024/01/26 11:58:58;;;;;;;11.57;10.60;;;11.10;99.90;;;;;;5095320;28;20043;-65
2024/01/26 12:01:24;;;;;;;11.85;10.85;;;11.00;99.90;;;;;;5094452;28;20035;-65
2024/01/26 12:03:50;;;;;;;13.30;12.10;;;10.90;99.90;;;;;;5094796;28;20032;-65
2024/01/26 12:06:16;;;;;;;13.82;12.60;;;10.90;99.90;;;;;;5094990;28;20036;-65
2024/01/26 12:08:42;;;;;;;14.50;13.20;;;10.80;99.90;;;;;;5094894;28;20024;-65
2024/01/26 12:11:12;;;;;;;14.95;13.63;;;10.80;99.90;;;;;;5092679;28;20024;-65
2024/01/26 12:13:39;;;;;;;14.45;13.13;;;10.90;99.90;;;;;;5088144;28;20454;-65
2024/01/26 12:16:06;;;;;;;14.85;13.55;;;10.80;99.90;;;;;;5083831;28;20045;-65
2024/01/26 12:18:31;;;;;;;15.27;13.82;;;10.80;99.90;;;;;;5074401;28;20024;-65
2024/01/26 12:20:57;;;;;;;14.98;13.57;;;10.90;99.90;;;;;;5085775;28;20020;-65
2024/01/26 12:23:23;;;;;;;14.90;13.50;;;10.90;99.90;;;;;;5086967;28;20095;-65
2024/01/26 12:25:52;;;;;;;14.10;12.70;;;11.00;99.90;;;;;;5094104;28;20177;-65
2024/01/26 12:28:26;;;;;;;14.57;13.18;;;11.00;99.90;;;;;;5094148;28;20570;-65
2024/01/26 12:30:52;;;;;;;14.18;12.88;;;11.00;99.90;;;;;;5074041;28;20028;-65
2024/01/26 12:33:18;;;;;;;14.40;13.00;;;11.00;99.90;;;;;;5080303;28;20051;-65
2024/01/26 12:35:46;;;;;;;14.07;12.68;;;11.00;99.90;;;;;;5094874;28;20103;-65
2024/01/26 12:38:13;;;;;;;13.90;12.50;;;11.10;99.90;;;;;;5094114;28;20040;-65
2024/01/26 12:40:38;;;;;;;13.85;12.48;;;11.10;99.90;;;;;;5094369;28;20100;-65
2024/01/26 12:43:05;;;;;;;13.00;11.70;;;11.00;99.90;;;;;;5093794;28;20484;-65
2024/01/26 12:45:30;;;;;;;12.57;11.38;;;11.00;99.90;;;;;;5094211;28;20016;-65
2024/01/26 12:47:56;;;;;;;12.68;11.38;;;10.90;99.90;;;;;;5094391;28;20479;-65